sensor_id;sensor_type;location;lat;lon;timestamp;pressure;altitude;pressure_sealevel;temperature;humidity
73106;BME280;61559;50.476;15.588;2023-04-06T00:02:01;97988.77;;;-2.82;76.65
73106;BME280;61559;50.476;15.588;2023-04-06T00:04:31;97988.39;;;-2.83;76.55
73106;BME280;61559;50.476;15.588;2023-04-06T00:07:02;97988.92;;;-2.86;76.53
73106;BME280;61559;50.476;15.588;2023-04-06T00:09:33;97988.09;;;-2.88;76.58
73106;BME280;61559;50.476;15.588;2023-04-06T00:12:03;97986.76;;;-2.91;76.50
73106;BME280;61559;50.476;15.588;2023-04-06T00:14:34;97987.60;;;-2.93;76.61
73106;BME280;61559;50.476;15.588;2023-04-06T00:17:05;97992.14;;;-2.94;76.72
73106;BME280;61559;50.476;15.588;2023-04-06T00:19:36;97988.13;;;-2.96;76.61
73106;BME280;61559;50.476;15.588;2023-04-06T00:22:07;97983.70;;;-2.97;76.44
73106;BME280;61559;50.476;15.588;2023-04-06T00:24:39;97978.77;;;-2.99;76.53
73106;BME280;61559;50.476;15.588;2023-04-06T00:27:10;97975.40;;;-3.00;76.46
73106;BME280;61559;50.476;15.588;2023-04-06T00:29:43;97976.77;;;-3.01;76.38
73106;BME280;61559;50.476;15.588;2023-04-06T00:32:14;97976.45;;;-3.04;76.54
73106;BME280;61559;50.476;15.588;2023-04-06T00:34:45;97972.35;;;-3.09;76.69
73106;BME280;61559;50.476;15.588;2023-04-06T00:37:16;97968.33;;;-3.16;76.82
73106;BME280;61559;50.476;15.588;2023-04-06T00:39:49;97969.73;;;-3.21;77.03
73106;BME280;61559;50.476;15.588;2023-04-06T00:42:22;97968.33;;;-3.25;77.28
73106;BME280;61559;50.476;15.588;2023-04-06T00:44:57;97971.73;;;-3.31;76.99
73106;BME280;61559;50.476;15.588;2023-04-06T00:47:28;97972.06;;;-3.37;77.24
73106;BME280;61559;50.476;15.588;2023-04-06T00:50:00;97969.25;;;-3.42;77.19
73106;BME280;61559;50.476;15.588;2023-04-06T00:52:31;97974.56;;;-3.42;77.47
73106;BME280;61559;50.476;15.588;2023-04-06T00:55:02;97970.66;;;-3.43;77.52
73106;BME280;61559;50.476;15.588;2023-04-06T00:57:33;97971.29;;;-3.44;77.39
73106;BME280;61559;50.476;15.588;2023-04-06T01:00:06;97972.98;;;-3.44;77.63
73106;BME280;61559;50.476;15.588;2023-04-06T01:02:38;97969.33;;;-3.46;77.53
73106;BME280;61559;50.476;15.588;2023-04-06T01:05:10;97969.64;;;-3.48;77.49
73106;BME280;61559;50.476;15.588;2023-04-06T01:07:41;97969.99;;;-3.49;77.54
73106;BME280;61559;50.476;15.588;2023-04-06T01:10:12;97968.00;;;-3.50;77.59
73106;BME280;61559;50.476;15.588;2023-04-06T01:12:53;97967.81;;;-3.53;77.24
73106;BME280;61559;50.476;15.588;2023-04-06T01:15:24;97961.75;;;-3.55;77.43
73106;BME280;61559;50.476;15.588;2023-04-06T01:17:57;97961.88;;;-3.57;77.53
73106;BME280;61559;50.476;15.588;2023-04-06T01:20:28;97964.54;;;-3.61;77.61
73106;BME280;61559;50.476;15.588;2023-04-06T01:23:00;97966.42;;;-3.64;77.57
73106;BME280;61559;50.476;15.588;2023-04-06T01:25:31;97966.55;;;-3.67;77.70
73106;BME280;61559;50.476;15.588;2023-04-06T01:28:02;97962.77;;;-3.70;77.55
73106;BME280;61559;50.476;15.588;2023-04-06T01:30:33;97960.24;;;-3.74;77.44
73106;BME280;61559;50.476;15.588;2023-04-06T01:33:04;97962.95;;;-3.76;77.67
73106;BME280;61559;50.476;15.588;2023-04-06T01:35:36;97964.27;;;-3.82;77.54
73106;BME280;61559;50.476;15.588;2023-04-06T01:38:07;97967.10;;;-3.88;78.02
73106;BME280;61559;50.476;15.588;2023-04-06T01:40:39;97964.61;;;-3.93;78.27
73106;BME280;61559;50.476;15.588;2023-04-06T01:43:10;97965.28;;;-3.96;78.18
73106;BME280;61559;50.476;15.588;2023-04-06T01:45:41;97962.70;;;-3.99;78.00
73106;BME280;61559;50.476;15.588;2023-04-06T01:48:12;97963.41;;;-4.02;78.36
73106;BME280;61559;50.476;15.588;2023-04-06T01:50:43;97959.55;;;-4.03;78.12
73106;BME280;61559;50.476;15.588;2023-04-06T01:53:15;97964.52;;;-4.05;78.06
73106;BME280;61559;50.476;15.588;2023-04-06T01:55:46;97962.79;;;-4.10;78.21
73106;BME280;61559;50.476;15.588;2023-04-06T01:58:17;97963.23;;;-4.16;78.55
73106;BME280;61559;50.476;15.588;2023-04-06T02:00:48;97963.08;;;-4.21;78.77
73106;BME280;61559;50.476;15.588;2023-04-06T02:03:20;97964.90;;;-4.23;79.00
73106;BME280;61559;50.476;15.588;2023-04-06T02:05:51;97962.30;;;-4.23;78.74
73106;BME280;61559;50.476;15.588;2023-04-06T02:08:22;97961.21;;;-4.21;78.95
73106;BME280;61559;50.476;15.588;2023-04-06T02:10:53;97958.23;;;-4.20;78.86
73106;BME280;61559;50.476;15.588;2023-04-06T02:13:24;97955.52;;;-4.18;78.69
73106;BME280;61559;50.476;15.588;2023-04-06T02:15:55;97955.02;;;-4.18;78.50
73106;BME280;61559;50.476;15.588;2023-04-06T02:18:26;97952.84;;;-4.17;78.52
73106;BME280;61559;50.476;15.588;2023-04-06T02:20:57;97955.58;;;-4.16;78.47
73106;BME280;61559;50.476;15.588;2023-04-06T02:23:28;97959.67;;;-4.16;78.25
73106;BME280;61559;50.476;15.588;2023-04-06T02:25:59;97960.38;;;-4.16;78.33
73106;BME280;61559;50.476;15.588;2023-04-06T02:28:30;97959.19;;;-4.17;78.33
73106;BME280;61559;50.476;15.588;2023-04-06T02:31:01;97962.09;;;-4.17;78.24
73106;BME280;61559;50.476;15.588;2023-04-06T02:33:32;97962.56;;;-4.20;78.35
73106;BME280;61559;50.476;15.588;2023-04-06T02:36:04;97966.21;;;-4.23;78.47
73106;BME280;61559;50.476;15.588;2023-04-06T02:38:36;97966.53;;;-4.25;78.42
73106;BME280;61559;50.476;15.588;2023-04-06T02:41:07;97967.19;;;-4.25;78.35
73106;BME280;61559;50.476;15.588;2023-04-06T02:43:38;97961.23;;;-4.27;78.43
73106;BME280;61559;50.476;15.588;2023-04-06T02:46:09;97962.16;;;-4.27;78.15
73106;BME280;61559;50.476;15.588;2023-04-06T02:48:40;97961.36;;;-4.30;77.97
73106;BME280;61559;50.476;15.588;2023-04-06T02:51:11;97962.34;;;-4.32;78.11
73106;BME280;61559;50.476;15.588;2023-04-06T02:53:42;97965.55;;;-4.37;78.44
73106;BME280;61559;50.476;15.588;2023-04-06T02:56:14;97959.52;;;-4.51;78.71
73106;BME280;61559;50.476;15.588;2023-04-06T02:58:46;97965.46;;;-4.57;78.77
73106;BME280;61559;50.476;15.588;2023-04-06T03:01:17;97964.08;;;-4.62;78.94
73106;BME280;61559;50.476;15.588;2023-04-06T03:03:48;97966.52;;;-4.66;79.03
73106;BME280;61559;50.476;15.588;2023-04-06T03:06:19;97965.73;;;-4.68;78.86
73106;BME280;61559;50.476;15.588;2023-04-06T03:08:50;97971.77;;;-4.71;79.28
73106;BME280;61559;50.476;15.588;2023-04-06T03:11:22;97971.21;;;-4.72;79.22
73106;BME280;61559;50.476;15.588;2023-04-06T03:13:53;97973.19;;;-4.72;79.18
73106;BME280;61559;50.476;15.588;2023-04-06T03:16:24;97972.45;;;-4.70;79.23
73106;BME280;61559;50.476;15.588;2023-04-06T03:18:55;97972.91;;;-4.68;79.22
73106;BME280;61559;50.476;15.588;2023-04-06T03:21:26;97971.28;;;-4.66;79.00
73106;BME280;61559;50.476;15.588;2023-04-06T03:23:57;97975.23;;;-4.64;78.94
73106;BME280;61559;50.476;15.588;2023-04-06T03:26:28;97975.17;;;-4.63;78.86
73106;BME280;61559;50.476;15.588;2023-04-06T03:28:59;97975.14;;;-4.62;78.65
73106;BME280;61559;50.476;15.588;2023-04-06T03:31:30;97978.05;;;-4.64;78.82
73106;BME280;61559;50.476;15.588;2023-04-06T03:34:00;97975.65;;;-4.67;79.05
73106;BME280;61559;50.476;15.588;2023-04-06T03:36:32;97979.02;;;-4.71;79.08
73106;BME280;61559;50.476;15.588;2023-04-06T03:39:03;97981.23;;;-4.74;79.37
73106;BME280;61559;50.476;15.588;2023-04-06T03:41:35;97980.00;;;-4.79;79.16
73106;BME280;61559;50.476;15.588;2023-04-06T03:44:06;97977.62;;;-4.83;79.11
73106;BME280;61559;50.476;15.588;2023-04-06T03:46:37;97978.85;;;-4.82;79.20
73106;BME280;61559;50.476;15.588;2023-04-06T03:49:09;97981.13;;;-4.81;79.28
73106;BME280;61559;50.476;15.588;2023-04-06T03:51:40;97982.13;;;-4.81;79.29
73106;BME280;61559;50.476;15.588;2023-04-06T03:54:11;97986.23;;;-4.82;79.31
73106;BME280;61559;50.476;15.588;2023-04-06T03:56:42;97986.23;;;-4.83;79.33
73106;BME280;61559;50.476;15.588;2023-04-06T03:59:13;97990.64;;;-4.85;79.40
73106;BME280;61559;50.476;15.588;2023-04-06T04:01:45;97987.71;;;-4.87;79.56
73106;BME280;61559;50.476;15.588;2023-04-06T04:04:16;97991.18;;;-4.86;79.42
73106;BME280;61559;50.476;15.588;2023-04-06T04:06:47;97990.30;;;-4.89;79.23
73106;BME280;61559;50.476;15.588;2023-04-06T04:09:19;97989.05;;;-4.89;79.38
73106;BME280;61559;50.476;15.588;2023-04-06T04:11:50;97990.68;;;-4.90;79.28
73106;BME280;61559;50.476;15.588;2023-04-06T04:14:21;97991.45;;;-4.91;79.32
73106;BME280;61559;50.476;15.588;2023-04-06T04:16:52;97989.45;;;-4.92;79.26
73106;BME280;61559;50.476;15.588;2023-04-06T04:19:24;97986.13;;;-4.96;79.33
73106;BME280;61559;50.476;15.588;2023-04-06T04:21:55;97986.39;;;-4.96;79.15
73106;BME280;61559;50.476;15.588;2023-04-06T04:24:26;97986.67;;;-4.98;78.99
73106;BME280;61559;50.476;15.588;2023-04-06T04:26:57;97986.41;;;-5.00;79.04
73106;BME280;61559;50.476;15.588;2023-04-06T04:29:29;97990.11;;;-5.00;79.19
73106;BME280;61559;50.476;15.588;2023-04-06T04:32:00;97989.19;;;-5.01;79.27
73106;BME280;61559;50.476;15.588;2023-04-06T04:34:31;97989.11;;;-5.01;79.44
73106;BME280;61559;50.476;15.588;2023-04-06T04:37:02;97990.84;;;-4.98;79.33
73106;BME280;61559;50.476;15.588;2023-04-06T04:39:33;97990.96;;;-4.98;79.26
73106;BME280;61559;50.476;15.588;2023-04-06T04:42:04;97995.64;;;-4.98;79.20
73106;BME280;61559;50.476;15.588;2023-04-06T04:44:36;98000.89;;;-4.98;79.15
73106;BME280;61559;50.476;15.588;2023-04-06T04:47:07;98004.80;;;-5.03;79.16
73106;BME280;61559;50.476;15.588;2023-04-06T04:49:38;98001.09;;;-5.09;79.48
73106;BME280;61559;50.476;15.588;2023-04-06T04:52:09;98005.34;;;-5.08;79.33
73106;BME280;61559;50.476;15.588;2023-04-06T04:54:39;98002.40;;;-5.06;79.57
73106;BME280;61559;50.476;15.588;2023-04-06T04:57:11;98004.18;;;-5.04;79.56
73106;BME280;61559;50.476;15.588;2023-04-06T04:59:42;98002.83;;;-5.02;79.37
73106;BME280;61559;50.476;15.588;2023-04-06T05:02:13;98004.34;;;-4.98;79.65
73106;BME280;61559;50.476;15.588;2023-04-06T05:04:44;98002.40;;;-4.94;79.45
73106;BME280;61559;50.476;15.588;2023-04-06T05:07:16;98004.37;;;-4.90;79.45
73106;BME280;61559;50.476;15.588;2023-04-06T05:09:48;98007.41;;;-4.85;79.41
73106;BME280;61559;50.476;15.588;2023-04-06T05:12:19;98005.79;;;-4.81;79.46
73106;BME280;61559;50.476;15.588;2023-04-06T05:14:52;98007.64;;;-4.78;79.42
73106;BME280;61559;50.476;15.588;2023-04-06T05:17:24;98008.21;;;-4.76;79.39
73106;BME280;61559;50.476;15.588;2023-04-06T05:19:55;98008.40;;;-4.72;79.46
73106;BME280;61559;50.476;15.588;2023-04-06T05:22:26;98012.45;;;-4.68;79.43
73106;BME280;61559;50.476;15.588;2023-04-06T05:24:57;98014.11;;;-4.64;79.43
73106;BME280;61559;50.476;15.588;2023-04-06T05:27:29;98012.98;;;-4.59;79.40
73106;BME280;61559;50.476;15.588;2023-04-06T05:30:00;98012.66;;;-4.53;79.63
73106;BME280;61559;50.476;15.588;2023-04-06T05:32:32;98016.09;;;-4.46;79.60
73106;BME280;61559;50.476;15.588;2023-04-06T05:35:04;98015.57;;;-4.38;79.55
73106;BME280;61559;50.476;15.588;2023-04-06T05:37:35;98019.23;;;-4.30;79.79
73106;BME280;61559;50.476;15.588;2023-04-06T05:40:07;98016.15;;;-4.22;79.78
73106;BME280;61559;50.476;15.588;2023-04-06T05:42:39;98016.55;;;-4.15;79.81
73106;BME280;61559;50.476;15.588;2023-04-06T05:45:12;98013.89;;;-4.06;79.73
73106;BME280;61559;50.476;15.588;2023-04-06T05:47:46;98015.09;;;-3.96;79.70
73106;BME280;61559;50.476;15.588;2023-04-06T05:50:18;98015.94;;;-3.87;79.66
73106;BME280;61559;50.476;15.588;2023-04-06T05:52:49;98016.90;;;-3.78;79.52
73106;BME280;61559;50.476;15.588;2023-04-06T05:55:20;98015.34;;;-3.66;79.65
73106;BME280;61559;50.476;15.588;2023-04-06T05:57:51;98014.80;;;-3.54;79.55
73106;BME280;61559;50.476;15.588;2023-04-06T06:00:22;98010.77;;;-3.44;79.47
73106;BME280;61559;50.476;15.588;2023-04-06T06:02:54;98010.49;;;-3.34;79.32
73106;BME280;61559;50.476;15.588;2023-04-06T06:05:25;98008.44;;;-3.22;79.46
73106;BME280;61559;50.476;15.588;2023-04-06T06:07:57;98006.02;;;-3.09;79.65
73106;BME280;61559;50.476;15.588;2023-04-06T06:10:28;98002.39;;;-2.96;79.41
73106;BME280;61559;50.476;15.588;2023-04-06T06:12:59;97999.56;;;-2.82;79.49
73106;BME280;61559;50.476;15.588;2023-04-06T06:15:30;98000.13;;;-2.68;79.42
73106;BME280;61559;50.476;15.588;2023-04-06T06:18:01;97997.95;;;-2.54;79.34
73106;BME280;61559;50.476;15.588;2023-04-06T06:20:32;97996.00;;;-2.43;79.27
73106;BME280;61559;50.476;15.588;2023-04-06T06:23:03;98000.52;;;-2.31;79.38
73106;BME280;61559;50.476;15.588;2023-04-06T06:25:34;98002.86;;;-2.20;79.49
73106;BME280;61559;50.476;15.588;2023-04-06T06:28:06;98001.96;;;-2.10;79.59
73106;BME280;61559;50.476;15.588;2023-04-06T06:30:35;97999.19;;;-1.98;79.71
73106;BME280;61559;50.476;15.588;2023-04-06T06:33:06;97997.63;;;-1.88;79.79
73106;BME280;61559;50.476;15.588;2023-04-06T06:35:37;97995.02;;;-1.75;79.82
73106;BME280;61559;50.476;15.588;2023-04-06T06:38:08;97996.02;;;-1.60;79.91
73106;BME280;61559;50.476;15.588;2023-04-06T06:40:40;97991.28;;;-1.46;79.64
73106;BME280;61559;50.476;15.588;2023-04-06T06:43:12;97992.42;;;-1.31;79.39
73106;BME280;61559;50.476;15.588;2023-04-06T06:45:43;97990.73;;;-1.17;79.46
73106;BME280;61559;50.476;15.588;2023-04-06T06:48:13;97996.48;;;-1.02;79.25
73106;BME280;61559;50.476;15.588;2023-04-06T06:50:44;97996.59;;;-0.90;79.28
73106;BME280;61559;50.476;15.588;2023-04-06T06:53:19;97990.35;;;-0.76;79.37
73106;BME280;61559;50.476;15.588;2023-04-06T06:55:50;97992.38;;;-0.61;79.47
73106;BME280;61559;50.476;15.588;2023-04-06T06:58:22;97988.14;;;-0.46;79.51
73106;BME280;61559;50.476;15.588;2023-04-06T07:00:57;97989.30;;;-0.30;79.65
73106;BME280;61559;50.476;15.588;2023-04-06T07:03:28;97986.97;;;-0.17;79.58
73106;BME280;61559;50.476;15.588;2023-04-06T07:06:00;97987.54;;;-0.03;79.46
73106;BME280;61559;50.476;15.588;2023-04-06T07:08:31;97983.57;;;0.12;79.47
73106;BME280;61559;50.476;15.588;2023-04-06T07:11:02;97987.54;;;0.27;79.44
73106;BME280;61559;50.476;15.588;2023-04-06T07:13:33;97984.43;;;0.41;78.96
73106;BME280;61559;50.476;15.588;2023-04-06T07:16:05;97978.42;;;0.55;78.88
73106;BME280;61559;50.476;15.588;2023-04-06T07:18:36;97979.77;;;0.70;78.57
73106;BME280;61559;50.476;15.588;2023-04-06T07:21:08;97979.87;;;0.83;78.15
73106;BME280;61559;50.476;15.588;2023-04-06T07:23:39;97988.02;;;0.97;77.64
73106;BME280;61559;50.476;15.588;2023-04-06T07:26:10;97983.20;;;1.11;77.72
73106;BME280;61559;50.476;15.588;2023-04-06T07:28:41;97984.46;;;1.26;76.95
73106;BME280;61559;50.476;15.588;2023-04-06T07:31:12;97981.62;;;1.42;75.19
73106;BME280;61559;50.476;15.588;2023-04-06T07:33:43;97978.02;;;1.57;71.34
73106;BME280;61559;50.476;15.588;2023-04-06T07:36:14;97974.61;;;1.72;68.04
73106;BME280;61559;50.476;15.588;2023-04-06T07:38:45;97972.87;;;1.90;66.90
73106;BME280;61559;50.476;15.588;2023-04-06T07:41:16;97969.66;;;2.06;66.09
73106;BME280;61559;50.476;15.588;2023-04-06T07:43:48;97975.46;;;2.21;66.41
73106;BME280;61559;50.476;15.588;2023-04-06T07:46:17;97969.84;;;2.34;65.28
73106;BME280;61559;50.476;15.588;2023-04-06T07:48:48;97973.20;;;2.47;63.58
73106;BME280;61559;50.476;15.588;2023-04-06T07:51:21;97972.22;;;2.57;61.72
73106;BME280;61559;50.476;15.588;2023-04-06T07:53:53;97970.70;;;2.68;61.73
73106;BME280;61559;50.476;15.588;2023-04-06T07:56:24;97970.67;;;2.79;62.18
73106;BME280;61559;50.476;15.588;2023-04-06T07:58:56;97974.20;;;2.89;61.44
73106;BME280;61559;50.476;15.588;2023-04-06T08:01:28;97972.73;;;2.98;60.73
73106;BME280;61559;50.476;15.588;2023-04-06T08:04:00;97973.20;;;3.07;60.41
73106;BME280;61559;50.476;15.588;2023-04-06T08:06:32;97973.20;;;3.15;60.27
73106;BME280;61559;50.476;15.588;2023-04-06T08:09:04;97973.96;;;3.24;58.97
73106;BME280;61559;50.476;15.588;2023-04-06T08:11:33;97971.36;;;3.33;58.47
73106;BME280;61559;50.476;15.588;2023-04-06T08:14:04;97966.70;;;3.38;57.75
73106;BME280;61559;50.476;15.588;2023-04-06T08:16:36;97968.10;;;3.46;57.19
73106;BME280;61559;50.476;15.588;2023-04-06T08:19:07;97967.75;;;3.50;56.53
73106;BME280;61559;50.476;15.588;2023-04-06T08:21:40;97963.64;;;3.56;57.53
73106;BME280;61559;50.476;15.588;2023-04-06T08:24:12;97965.82;;;3.64;57.69
73106;BME280;61559;50.476;15.588;2023-04-06T08:26:44;97968.34;;;3.73;57.17
73106;BME280;61559;50.476;15.588;2023-04-06T08:29:15;97965.81;;;3.80;57.10
73106;BME280;61559;50.476;15.588;2023-04-06T08:31:44;97966.41;;;3.88;56.27
73106;BME280;61559;50.476;15.588;2023-04-06T08:34:15;97964.73;;;3.92;55.44
73106;BME280;61559;50.476;15.588;2023-04-06T08:36:46;97963.68;;;4.00;55.37
73106;BME280;61559;50.476;15.588;2023-04-06T08:39:18;97963.30;;;4.09;55.44
73106;BME280;61559;50.476;15.588;2023-04-06T08:41:53;97957.04;;;4.18;53.59
73106;BME280;61559;50.476;15.588;2023-04-06T08:44:26;97961.23;;;4.20;53.55
73106;BME280;61559;50.476;15.588;2023-04-06T08:46:56;97955.01;;;4.27;53.52
73106;BME280;61559;50.476;15.588;2023-04-06T08:49:27;97955.21;;;4.34;52.83
73106;BME280;61559;50.476;15.588;2023-04-06T08:51:59;97952.59;;;4.38;51.69
73106;BME280;61559;50.476;15.588;2023-04-06T08:54:31;97953.77;;;4.41;52.26
73106;BME280;61559;50.476;15.588;2023-04-06T08:57:03;97950.86;;;4.47;52.22
73106;BME280;61559;50.476;15.588;2023-04-06T08:59:35;97956.84;;;4.54;51.64
73106;BME280;61559;50.476;15.588;2023-04-06T09:02:08;97954.48;;;4.59;51.59
73106;BME280;61559;50.476;15.588;2023-04-06T09:04:47;97949.90;;;4.63;51.93
73106;BME280;61559;50.476;15.588;2023-04-06T09:07:19;97948.83;;;4.63;51.87
73106;BME280;61559;50.476;15.588;2023-04-06T09:09:51;97945.50;;;4.66;52.53
73106;BME280;61559;50.476;15.588;2023-04-06T09:12:26;97945.60;;;4.71;52.69
73106;BME280;61559;50.476;15.588;2023-04-06T09:14:58;97942.28;;;4.73;50.71
73106;BME280;61559;50.476;15.588;2023-04-06T09:17:32;97940.39;;;4.75;49.77
73106;BME280;61559;50.476;15.588;2023-04-06T09:20:04;97938.66;;;4.76;50.28
73106;BME280;61559;50.476;15.588;2023-04-06T09:22:39;97931.41;;;4.76;50.39
73106;BME280;61559;50.476;15.588;2023-04-06T09:25:19;97930.55;;;4.77;51.25
73106;BME280;61559;50.476;15.588;2023-04-06T09:27:59;97929.27;;;4.80;51.64
73106;BME280;61559;50.476;15.588;2023-04-06T09:30:31;97930.02;;;4.82;51.59
73106;BME280;61559;50.476;15.588;2023-04-06T09:33:02;97932.67;;;4.90;51.69
73106;BME280;61559;50.476;15.588;2023-04-06T09:35:33;97932.09;;;4.98;50.82
73106;BME280;61559;50.476;15.588;2023-04-06T09:38:12;97931.05;;;5.10;49.69
73106;BME280;61559;50.476;15.588;2023-04-06T09:40:51;97931.44;;;5.22;48.91
73106;BME280;61559;50.476;15.588;2023-04-06T09:43:30;97922.10;;;5.36;49.12
73106;BME280;61559;50.476;15.588;2023-04-06T09:46:02;97926.93;;;5.53;49.01
73106;BME280;61559;50.476;15.588;2023-04-06T09:48:35;97920.88;;;5.71;48.78
73106;BME280;61559;50.476;15.588;2023-04-06T09:51:07;97923.41;;;5.85;47.75
73106;BME280;61559;50.476;15.588;2023-04-06T09:53:43;97917.90;;;5.96;48.30
73106;BME280;61559;50.476;15.588;2023-04-06T09:56:19;97918.09;;;5.99;46.05
73106;BME280;61559;50.476;15.588;2023-04-06T09:58:55;97918.36;;;5.96;46.37
73106;BME280;61559;50.476;15.588;2023-04-06T10:01:29;97917.50;;;5.95;46.77
73106;BME280;61559;50.476;15.588;2023-04-06T10:04:13;97918.38;;;5.90;46.33
73106;BME280;61559;50.476;15.588;2023-04-06T10:06:50;97914.86;;;5.87;46.22
73106;BME280;61559;50.476;15.588;2023-04-06T10:09:28;97914.86;;;5.87;46.59
73106;BME280;61559;50.476;15.588;2023-04-06T10:12:06;97908.76;;;5.95;47.27
73106;BME280;61559;50.476;15.588;2023-04-06T10:14:37;97908.00;;;6.07;47.72
73106;BME280;61559;50.476;15.588;2023-04-06T10:17:11;97905.33;;;6.22;46.96
73106;BME280;61559;50.476;15.588;2023-04-06T10:19:49;97902.16;;;6.34;44.39
73106;BME280;61559;50.476;15.588;2023-04-06T10:22:26;97898.14;;;6.43;44.26
73106;BME280;61559;50.476;15.588;2023-04-06T10:25:00;97891.84;;;6.56;44.17
73106;BME280;61559;50.476;15.588;2023-04-06T10:27:31;97889.00;;;6.70;44.28
73106;BME280;61559;50.476;15.588;2023-04-06T10:30:05;97886.86;;;6.85;44.59
73106;BME280;61559;50.476;15.588;2023-04-06T10:32:38;97883.15;;;6.95;43.41
73106;BME280;61559;50.476;15.588;2023-04-06T10:35:11;97878.81;;;7.07;42.92
73106;BME280;61559;50.476;15.588;2023-04-06T10:37:59;97868.75;;;7.17;42.05
73106;BME280;61559;50.476;15.588;2023-04-06T10:40:31;97871.98;;;7.30;42.65
73106;BME280;61559;50.476;15.588;2023-04-06T10:43:10;97874.23;;;7.38;42.25
73106;BME280;61559;50.476;15.588;2023-04-06T10:45:42;97871.60;;;7.44;42.90
73106;BME280;61559;50.476;15.588;2023-04-06T10:48:18;97869.67;;;7.42;42.16
73106;BME280;61559;50.476;15.588;2023-04-06T10:50:51;97875.29;;;7.40;42.81
73106;BME280;61559;50.476;15.588;2023-04-06T10:53:24;97872.08;;;7.31;40.94
73106;BME280;61559;50.476;15.588;2023-04-06T10:55:57;97878.39;;;7.16;41.40
73106;BME280;61559;50.476;15.588;2023-04-06T10:58:28;97879.55;;;7.09;42.24
73106;BME280;61559;50.476;15.588;2023-04-06T11:01:00;97875.19;;;7.06;42.77
73106;BME280;61559;50.476;15.588;2023-04-06T11:03:31;97873.40;;;7.05;42.42
73106;BME280;61559;50.476;15.588;2023-04-06T11:06:04;97864.35;;;7.04;41.37
73106;BME280;61559;50.476;15.588;2023-04-06T11:08:36;97861.14;;;7.03;40.35
73106;BME280;61559;50.476;15.588;2023-04-06T11:11:10;97861.76;;;7.07;41.81
73106;BME280;61559;50.476;15.588;2023-04-06T11:13:48;97860.34;;;7.18;41.13
73106;BME280;61559;50.476;15.588;2023-04-06T11:16:21;97855.36;;;7.27;41.67
73106;BME280;61559;50.476;15.588;2023-04-06T11:18:55;97856.20;;;7.42;42.63
73106;BME280;61559;50.476;15.588;2023-04-06T11:21:35;97850.77;;;7.57;41.49
73106;BME280;61559;50.476;15.588;2023-04-06T11:24:09;97849.16;;;7.73;41.58
73106;BME280;61559;50.476;15.588;2023-04-06T11:26:42;97845.81;;;7.83;40.87
73106;BME280;61559;50.476;15.588;2023-04-06T11:29:16;97843.86;;;7.83;40.22
73106;BME280;61559;50.476;15.588;2023-04-06T11:31:49;97846.79;;;7.79;39.30
73106;BME280;61559;50.476;15.588;2023-04-06T11:34:22;97843.49;;;7.83;40.28
73106;BME280;61559;50.476;15.588;2023-04-06T11:36:57;97842.17;;;7.86;39.99
73106;BME280;61559;50.476;15.588;2023-04-06T11:39:29;97843.72;;;7.86;40.09
73106;BME280;61559;50.476;15.588;2023-04-06T11:42:01;97842.72;;;7.84;38.77
73106;BME280;61559;50.476;15.588;2023-04-06T11:44:39;97837.82;;;7.80;38.60
73106;BME280;61559;50.476;15.588;2023-04-06T11:47:12;97838.10;;;7.76;37.90
73106;BME280;61559;50.476;15.588;2023-04-06T11:49:44;97835.64;;;7.69;38.06
73106;BME280;61559;50.476;15.588;2023-04-06T11:52:19;97829.58;;;7.59;37.15
73106;BME280;61559;50.476;15.588;2023-04-06T11:54:52;97829.79;;;7.51;37.54
73106;BME280;61559;50.476;15.588;2023-04-06T11:57:23;97825.06;;;7.48;36.56
73106;BME280;61559;50.476;15.588;2023-04-06T11:59:56;97823.38;;;7.48;37.27
73106;BME280;61559;50.476;15.588;2023-04-06T12:02:27;97824.45;;;7.55;38.60
73106;BME280;61559;50.476;15.588;2023-04-06T12:04:58;97820.41;;;7.62;37.14
73106;BME280;61559;50.476;15.588;2023-04-06T12:07:31;97813.45;;;7.68;37.98
73106;BME280;61559;50.476;15.588;2023-04-06T12:10:03;97814.65;;;7.77;37.62
73106;BME280;61559;50.476;15.588;2023-04-06T12:12:35;97810.50;;;7.85;37.79
73106;BME280;61559;50.476;15.588;2023-04-06T12:15:08;97808.70;;;7.96;37.27
73106;BME280;61559;50.476;15.588;2023-04-06T12:17:39;97808.23;;;7.99;35.84
73106;BME280;61559;50.476;15.588;2023-04-06T12:20:12;97805.83;;;7.99;35.45
73106;BME280;61559;50.476;15.588;2023-04-06T12:22:55;97803.40;;;7.96;35.73
73106;BME280;61559;50.476;15.588;2023-04-06T12:25:27;97801.90;;;7.88;35.30
73106;BME280;61559;50.476;15.588;2023-04-06T12:27:59;97802.80;;;7.89;36.27
73106;BME280;61559;50.476;15.588;2023-04-06T12:30:31;97792.83;;;7.93;35.87
73106;BME280;61559;50.476;15.588;2023-04-06T12:33:02;97785.52;;;7.99;35.45
73106;BME280;61559;50.476;15.588;2023-04-06T12:35:36;97783.98;;;8.07;35.90
73106;BME280;61559;50.476;15.588;2023-04-06T12:38:08;97776.77;;;8.12;34.79
73106;BME280;61559;50.476;15.588;2023-04-06T12:40:40;97773.77;;;8.17;35.71
73106;BME280;61559;50.476;15.588;2023-04-06T12:43:11;97772.66;;;8.22;35.28
73106;BME280;61559;50.476;15.588;2023-04-06T12:45:43;97774.16;;;8.27;35.47
73106;BME280;61559;50.476;15.588;2023-04-06T12:48:14;97768.55;;;8.35;35.95
73106;BME280;61559;50.476;15.588;2023-04-06T12:50:53;97769.80;;;8.48;37.43
73106;BME280;61559;50.476;15.588;2023-04-06T12:53:24;97766.58;;;8.61;37.06
73106;BME280;61559;50.476;15.588;2023-04-06T12:55:57;97767.45;;;8.64;35.25
73106;BME280;61559;50.476;15.588;2023-04-06T12:58:28;97759.80;;;8.59;35.40
73106;BME280;61559;50.476;15.588;2023-04-06T13:01:00;97759.98;;;8.60;35.67
73106;BME280;61559;50.476;15.588;2023-04-06T13:03:32;97759.38;;;8.59;36.16
73106;BME280;61559;50.476;15.588;2023-04-06T13:06:04;97755.94;;;8.62;36.93
73106;BME280;61559;50.476;15.588;2023-04-06T13:08:35;97754.35;;;8.64;36.53
73106;BME280;61559;50.476;15.588;2023-04-06T13:11:08;97752.39;;;8.59;35.60
73106;BME280;61559;50.476;15.588;2023-04-06T13:13:39;97748.70;;;8.59;36.92
73106;BME280;61559;50.476;15.588;2023-04-06T13:16:10;97745.92;;;8.65;36.64
73106;BME280;61559;50.476;15.588;2023-04-06T13:18:42;97746.06;;;8.72;36.26
73106;BME280;61559;50.476;15.588;2023-04-06T13:21:15;97748.42;;;8.77;36.42